sensor_id;sensor_type;location;lat;lon;timestamp;temperature;humidity
22629;DHT22;11481;53.694;9.910;2023-02-01T00:00:29;4.70;99.90
22629;DHT22;11481;53.694;9.910;2023-02-01T00:02:56;4.80;99.90
22629;DHT22;11481;53.694;9.910;2023-02-01T00:05:22;4.80;99.90
22629;DHT22;11481;53.694;9.910;2023-02-01T00:07:49;4.90;99.90
22629;DHT22;11481;53.694;9.910;2023-02-01T00:10:16;4.90;99.90
22629;DHT22;11481;53.694;9.910;2023-02-01T00:12:44;4.90;99.90
22629;DHT22;11481;53.694;9.910;2023-02-01T00:15:11;4.90;99.90
22629;DHT22;11481;53.694;9.910;2023-02-01T00:17:37;4.90;99.90
22629;DHT22;11481;53.694;9.910;2023-02-01T00:20:05;5.00;99.90
22629;DHT22;11481;53.694;9.910;2023-02-01T00:22:32;5.00;99.90
22629;DHT22;11481;53.694;9.910;2023-02-01T00:24:58;5.00;99.90
22629;DHT22;11481;53.694;9.910;2023-02-01T00:27:25;5.10;99.90
22629;DHT22;11481;53.694;9.910;2023-02-01T00:29:54;5.10;99.90
22629;DHT22;11481;53.694;9.910;2023-02-01T00:32:21;5.10;99.90
22629;DHT22;11481;53.694;9.910;2023-02-01T00:34:48;5.10;99.90
22629;DHT22;11481;53.694;9.910;2023-02-01T00:37:14;5.20;99.90
22629;DHT22;11481;53.694;9.910;2023-02-01T00:39:41;5.20;99.90
22629;DHT22;11481;53.694;9.910;2023-02-01T00:42:08;5.20;99.90
22629;DHT22;11481;53.694;9.910;2023-02-01T00:44:34;5.30;99.90
22629;DHT22;11481;53.694;9.910;2023-02-01T00:47:02;5.40;99.90
22629;DHT22;11481;53.694;9.910;2023-02-01T00:49:28;5.50;99.90
22629;DHT22;11481;53.694;9.910;2023-02-01T00:51:55;5.50;99.90
22629;DHT22;11481;53.694;9.910;2023-02-01T00:54:22;5.50;99.90
22629;DHT22;11481;53.694;9.910;2023-02-01T00:56:49;5.50;99.90
22629;DHT22;11481;53.694;9.910;2023-02-01T00:59:16;5.50;99.90
22629;DHT22;11481;53.694;9.910;2023-02-01T01:01:42;5.50;99.90
22629;DHT22;11481;53.694;9.910;2023-02-01T01:04:09;5.60;99.90
22629;DHT22;11481;53.694;9.910;2023-02-01T01:06:36;5.50;99.90
22629;DHT22;11481;53.694;9.910;2023-02-01T01:09:05;5.50;99.90
22629;DHT22;11481;53.694;9.910;2023-02-01T01:11:35;5.60;99.90
22629;DHT22;11481;53.694;9.910;2023-02-01T01:14:04;5.60;99.90
22629;DHT22;11481;53.694;9.910;2023-02-01T01:16:32;5.60;99.90
22629;DHT22;11481;53.694;9.910;2023-02-01T01:18:59;5.60;99.90
22629;DHT22;11481;53.694;9.910;2023-02-01T01:21:27;5.60;99.90
22629;DHT22;11481;53.694;9.910;2023-02-01T01:23:54;5.70;99.90
22629;DHT22;11481;53.694;9.910;2023-02-01T01:26:25;5.70;99.90
22629;DHT22;11481;53.694;9.910;2023-02-01T01:28:52;5.60;99.90
22629;DHT22;11481;53.694;9.910;2023-02-01T01:31:20;5.60;99.90
22629;DHT22;11481;53.694;9.910;2023-02-01T01:33:49;5.70;99.90
22629;DHT22;11481;53.694;9.910;2023-02-01T01:36:16;5.60;99.90
22629;DHT22;11481;53.694;9.910;2023-02-01T01:38:43;5.60;99.90
22629;DHT22;11481;53.694;9.910;2023-02-01T01:41:14;5.60;99.90
22629;DHT22;11481;53.694;9.910;2023-02-01T01:43:53;5.60;99.90
22629;DHT22;11481;53.694;9.910;2023-02-01T01:46:30;5.60;99.90
22629;DHT22;11481;53.694;9.910;2023-02-01T01:49:04;5.60;99.90
22629;DHT22;11481;53.694;9.910;2023-02-01T01:51:37;5.60;99.90
22629;DHT22;11481;53.694;9.910;2023-02-01T01:54:49;5.60;99.90
22629;DHT22;11481;53.694;9.910;2023-02-01T01:57:20;5.60;99.90
22629;DHT22;11481;53.694;9.910;2023-02-01T02:00:04;5.70;99.90
22629;DHT22;11481;53.694;9.910;2023-02-01T02:02:31;5.70;99.90
22629;DHT22;11481;53.694;9.910;2023-02-01T02:04:58;5.70;99.90
22629;DHT22;11481;53.694;9.910;2023-02-01T02:07:28;5.70;99.90
22629;DHT22;11481;53.694;9.910;2023-02-01T02:09:56;5.60;99.90
22629;DHT22;11481;53.694;9.910;2023-02-01T02:12:27;5.70;99.90
22629;DHT22;11481;53.694;9.910;2023-02-01T02:14:54;5.70;99.90
22629;DHT22;11481;53.694;9.910;2023-02-01T02:17:31;5.70;99.90
22629;DHT22;11481;53.694;9.910;2023-02-01T02:28:43;5.70;99.90
22629;DHT22;11481;53.694;9.910;2023-02-01T02:31:40;5.70;99.90
22629;DHT22;11481;53.694;9.910;2023-02-01T02:39:36;5.70;99.90
22629;DHT22;11481;53.694;9.910;2023-02-01T02:42:13;5.70;99.90
22629;DHT22;11481;53.694;9.910;2023-02-01T02:45:04;5.70;99.90
22629;DHT22;11481;53.694;9.910;2023-02-01T02:48:17;5.60;99.90
22629;DHT22;11481;53.694;9.910;2023-02-01T02:51:00;5.60;99.90
22629;DHT22;11481;53.694;9.910;2023-02-01T02:56:31;5.60;99.90
22629;DHT22;11481;53.694;9.910;2023-02-01T02:59:20;5.60;99.90
22629;DHT22;11481;53.694;9.910;2023-02-01T03:02:07;5.60;99.90
22629;DHT22;11481;53.694;9.910;2023-02-01T03:04:56;5.50;99.90
22629;DHT22;11481;53.694;9.910;2023-02-01T03:10:47;5.40;99.90
22629;DHT22;11481;53.694;9.910;2023-02-01T03:21:40;5.20;99.90
22629;DHT22;11481;53.694;9.910;2023-02-01T03:26:45;5.20;99.90
22629;DHT22;11481;53.694;9.910;2023-02-01T03:29:18;5.10;99.90
22629;DHT22;11481;53.694;9.910;2023-02-01T03:31:46;5.20;99.90
22629;DHT22;11481;53.694;9.910;2023-02-01T03:34:13;5.20;99.90
22629;DHT22;11481;53.694;9.910;2023-02-01T03:36:51;5.20;99.90
22629;DHT22;11481;53.694;9.910;2023-02-01T03:40:26;5.20;99.90
22629;DHT22;11481;53.694;9.910;2023-02-01T03:42:28;5.20;99.90
22629;DHT22;11481;53.694;9.910;2023-02-01T03:45:21;5.20;99.90
22629;DHT22;11481;53.694;9.910;2023-02-01T03:47:50;5.20;99.90
22629;DHT22;11481;53.694;9.910;2023-02-01T03:50:21;5.20;99.90
22629;DHT22;11481;53.694;9.910;2023-02-01T03:53:03;5.10;99.90
22629;DHT22;11481;53.694;9.910;2023-02-01T03:55:32;5.10;99.90
22629;DHT22;11481;53.694;9.910;2023-02-01T03:58:23;5.20;99.90
22629;DHT22;11481;53.694;9.910;2023-02-01T04:00:53;5.20;99.90
22629;DHT22;11481;53.694;9.910;2023-02-01T04:03:20;5.30;99.90
22629;DHT22;11481;53.694;9.910;2023-02-01T04:05:52;5.30;99.90
22629;DHT22;11481;53.694;9.910;2023-02-01T04:08:20;5.40;99.90
22629;DHT22;11481;53.694;9.910;2023-02-01T04:10:47;5.30;99.90
22629;DHT22;11481;53.694;9.910;2023-02-01T04:13:14;5.40;99.90
22629;DHT22;11481;53.694;9.910;2023-02-01T04:15:40;5.30;99.90
22629;DHT22;11481;53.694;9.910;2023-02-01T04:18:07;5.30;99.90
22629;DHT22;11481;53.694;9.910;2023-02-01T04:20:34;5.00;99.90
22629;DHT22;11481;53.694;9.910;2023-02-01T04:23:00;4.80;99.90
22629;DHT22;11481;53.694;9.910;2023-02-01T04:25:29;4.80;99.90
22629;DHT22;11481;53.694;9.910;2023-02-01T04:27:56;4.80;99.90
22629;DHT22;11481;53.694;9.910;2023-02-01T04:30:23;4.80;99.90
22629;DHT22;11481;53.694;9.910;2023-02-01T04:32:50;4.90;99.90
22629;DHT22;11481;53.694;9.910;2023-02-01T04:35:17;4.90;99.90
22629;DHT22;11481;53.694;9.910;2023-02-01T04:37:44;5.00;99.90
22629;DHT22;11481;53.694;9.910;2023-02-01T04:40:11;5.10;99.90
22629;DHT22;11481;53.694;9.910;2023-02-01T04:42:38;5.10;99.90
22629;DHT22;11481;53.694;9.910;2023-02-01T04:45:05;5.00;99.90
22629;DHT22;11481;53.694;9.910;2023-02-01T04:47:32;5.00;99.90
22629;DHT22;11481;53.694;9.910;2023-02-01T04:49:59;4.90;99.90
22629;DHT22;11481;53.694;9.910;2023-02-01T04:52:25;4.80;99.90
22629;DHT22;11481;53.694;9.910;2023-02-01T04:54:53;4.80;99.90
22629;DHT22;11481;53.694;9.910;2023-02-01T04:57:25;4.80;99.90
22629;DHT22;11481;53.694;9.910;2023-02-01T04:59:52;4.80;99.90
22629;DHT22;11481;53.694;9.910;2023-02-01T05:02:18;4.70;99.90
22629;DHT22;11481;53.694;9.910;2023-02-01T05:04:45;4.70;99.90
22629;DHT22;11481;53.694;9.910;2023-02-01T05:07:13;4.70;99.90
22629;DHT22;11481;53.694;9.910;2023-02-01T05:09:39;4.60;99.90
22629;DHT22;11481;53.694;9.910;2023-02-01T05:12:07;4.60;99.90
22629;DHT22;11481;53.694;9.910;2023-02-01T05:14:52;4.60;99.90
22629;DHT22;11481;53.694;9.910;2023-02-01T05:17:19;4.60;99.90
22629;DHT22;11481;53.694;9.910;2023-02-01T05:19:45;4.50;99.90
22629;DHT22;11481;53.694;9.910;2023-02-01T05:22:12;4.40;99.90
22629;DHT22;11481;53.694;9.910;2023-02-01T05:24:39;4.40;99.90
22629;DHT22;11481;53.694;9.910;2023-02-01T05:27:06;4.30;99.90
22629;DHT22;11481;53.694;9.910;2023-02-01T05:29:32;4.30;99.90
22629;DHT22;11481;53.694;9.910;2023-02-01T05:31:59;4.20;99.90
22629;DHT22;11481;53.694;9.910;2023-02-01T05:34:37;4.10;99.90
22629;DHT22;11481;53.694;9.910;2023-02-01T05:37:03;4.10;99.90
22629;DHT22;11481;53.694;9.910;2023-02-01T05:39:30;4.10;99.90
22629;DHT22;11481;53.694;9.910;2023-02-01T05:41:57;4.20;99.90
22629;DHT22;11481;53.694;9.910;2023-02-01T05:44:24;4.00;99.90
22629;DHT22;11481;53.694;9.910;2023-02-01T05:46:50;3.90;99.90
22629;DHT22;11481;53.694;9.910;2023-02-01T05:49:18;3.80;99.90
22629;DHT22;11481;53.694;9.910;2023-02-01T05:51:45;3.80;99.90
22629;DHT22;11481;53.694;9.910;2023-02-01T05:54:12;3.90;99.90
22629;DHT22;11481;53.694;9.910;2023-02-01T05:56:39;3.90;99.90
22629;DHT22;11481;53.694;9.910;2023-02-01T05:59:07;4.00;99.90
22629;DHT22;11481;53.694;9.910;2023-02-01T06:01:35;4.00;99.90
22629;DHT22;11481;53.694;9.910;2023-02-01T06:04:01;4.00;99.90
22629;DHT22;11481;53.694;9.910;2023-02-01T06:06:28;4.10;99.90
22629;DHT22;11481;53.694;9.910;2023-02-01T06:08:55;4.00;99.90
22629;DHT22;11481;53.694;9.910;2023-02-01T06:11:22;4.00;99.90
22629;DHT22;11481;53.694;9.910;2023-02-01T06:13:59;3.90;99.90
22629;DHT22;11481;53.694;9.910;2023-02-01T06:16:27;3.70;99.90
22629;DHT22;11481;53.694;9.910;2023-02-01T06:18:54;3.80;99.90
22629;DHT22;11481;53.694;9.910;2023-02-01T06:21:21;3.70;99.90
22629;DHT22;11481;53.694;9.910;2023-02-01T06:23:51;3.70;99.90
22629;DHT22;11481;53.694;9.910;2023-02-01T06:26:19;3.70;99.90
22629;DHT22;11481;53.694;9.910;2023-02-01T06:28:46;3.80;99.90
22629;DHT22;11481;53.694;9.910;2023-02-01T06:31:13;3.80;99.90
22629;DHT22;11481;53.694;9.910;2023-02-01T06:33:40;3.80;99.90
22629;DHT22;11481;53.694;9.910;2023-02-01T06:36:09;3.80;99.90
22629;DHT22;11481;53.694;9.910;2023-02-01T06:38:36;3.90;99.90
22629;DHT22;11481;53.694;9.910;2023-02-01T06:41:03;3.80;99.90
22629;DHT22;11481;53.694;9.910;2023-02-01T06:43:31;3.80;99.90
22629;DHT22;11481;53.694;9.910;2023-02-01T06:46:04;3.90;99.90
22629;DHT22;11481;53.694;9.910;2023-02-01T06:48:31;3.90;99.90
22629;DHT22;11481;53.694;9.910;2023-02-01T06:51:00;4.00;99.90
22629;DHT22;11481;53.694;9.910;2023-02-01T06:53:27;4.00;99.90
22629;DHT22;11481;53.694;9.910;2023-02-01T06:55:59;4.10;99.90
22629;DHT22;11481;53.694;9.910;2023-02-01T06:58:30;4.10;99.90
22629;DHT22;11481;53.694;9.910;2023-02-01T07:00:58;4.10;99.90
22629;DHT22;11481;53.694;9.910;2023-02-01T07:03:25;4.20;99.90
22629;DHT22;11481;53.694;9.910;2023-02-01T07:05:56;4.30;99.90
22629;DHT22;11481;53.694;9.910;2023-02-01T07:08:28;4.40;99.90
22629;DHT22;11481;53.694;9.910;2023-02-01T07:10:55;4.40;99.90
22629;DHT22;11481;53.694;9.910;2023-02-01T07:13:22;4.50;99.90
22629;DHT22;11481;53.694;9.910;2023-02-01T07:15:49;4.60;99.90
22629;DHT22;11481;53.694;9.910;2023-02-01T07:18:15;4.70;99.90
22629;DHT22;11481;53.694;9.910;2023-02-01T07:20:42;4.80;99.90
22629;DHT22;11481;53.694;9.910;2023-02-01T07:23:10;4.80;99.90
22629;DHT22;11481;53.694;9.910;2023-02-01T07:25:37;4.90;99.90
22629;DHT22;11481;53.694;9.910;2023-02-01T07:28:03;5.00;99.90
22629;DHT22;11481;53.694;9.910;2023-02-01T07:30:30;5.00;99.90
22629;DHT22;11481;53.694;9.910;2023-02-01T07:32:57;5.10;99.90
22629;DHT22;11481;53.694;9.910;2023-02-01T07:35:28;5.10;99.90
22629;DHT22;11481;53.694;9.910;2023-02-01T07:37:57;5.10;99.90
22629;DHT22;11481;53.694;9.910;2023-02-01T07:40:24;5.20;99.90
22629;DHT22;11481;53.694;9.910;2023-02-01T07:42:55;5.20;99.90
22629;DHT22;11481;53.694;9.910;2023-02-01T07:45:24;5.20;99.90
22629;DHT22;11481;53.694;9.910;2023-02-01T07:47:51;5.20;99.90
22629;DHT22;11481;53.694;9.910;2023-02-01T07:50:20;5.20;99.90
22629;DHT22;11481;53.694;9.910;2023-02-01T07:52:47;5.20;99.90
22629;DHT22;11481;53.694;9.910;2023-02-01T07:55:14;5.30;99.90
22629;DHT22;11481;53.694;9.910;2023-02-01T07:57:40;5.30;99.90
22629;DHT22;11481;53.694;9.910;2023-02-01T08:00:08;5.30;99.90
22629;DHT22;11481;53.694;9.910;2023-02-01T08:02:54;5.30;99.90
22629;DHT22;11481;53.694;9.910;2023-02-01T08:05:21;5.40;99.90
22629;DHT22;11481;53.694;9.910;2023-02-01T08:07:49;5.30;99.90
22629;DHT22;11481;53.694;9.910;2023-02-01T08:10:17;5.40;99.90
22629;DHT22;11481;53.694;9.910;2023-02-01T08:12:44;5.40;99.90
22629;DHT22;11481;53.694;9.910;2023-02-01T08:15:15;5.50;99.90
22629;DHT22;11481;53.694;9.910;2023-02-01T08:17:49;5.60;99.90
22629;DHT22;11481;53.694;9.910;2023-02-01T08:20:17;5.50;99.90
22629;DHT22;11481;53.694;9.910;2023-02-01T08:22:44;5.60;99.90
22629;DHT22;11481;53.694;9.910;2023-02-01T08:25:11;5.70;99.90
22629;DHT22;11481;53.694;9.910;2023-02-01T08:27:38;5.70;99.90
22629;DHT22;11481;53.694;9.910;2023-02-01T08:30:05;5.70;99.90
22629;DHT22;11481;53.694;9.910;2023-02-01T08:32:34;5.80;99.90
22629;DHT22;11481;53.694;9.910;2023-02-01T08:35:01;5.80;99.90
22629;DHT22;11481;53.694;9.910;2023-02-01T08:37:28;5.70;99.90
22629;DHT22;11481;53.694;9.910;2023-02-01T08:39:56;5.70;99.90
22629;DHT22;11481;53.694;9.910;2023-02-01T08:42:23;5.70;99.90
22629;DHT22;11481;53.694;9.910;2023-02-01T08:45:09;5.60;99.90
22629;DHT22;11481;53.694;9.910;2023-02-01T08:47:36;5.60;99.90
22629;DHT22;11481;53.694;9.910;2023-02-01T08:50:04;5.50;99.90
22629;DHT22;11481;53.694;9.910;2023-02-01T08:52:31;5.50;99.90
22629;DHT22;11481;53.694;9.910;2023-02-01T08:54:57;5.60;99.90
22629;DHT22;11481;53.694;9.910;2023-02-01T08:57:24;5.60;99.90
22629;DHT22;11481;53.694;9.910;2023-02-01T08:59:51;5.70;99.90
22629;DHT22;11481;53.694;9.910;2023-02-01T09:02:17;5.80;99.90
22629;DHT22;11481;53.694;9.910;2023-02-01T09:04:44;5.80;99.90
22629;DHT22;11481;53.694;9.910;2023-02-01T09:07:11;5.90;99.90
22629;DHT22;11481;53.694;9.910;2023-02-01T09:09:39;5.90;99.90
22629;DHT22;11481;53.694;9.910;2023-02-01T09:12:06;5.80;99.90
22629;DHT22;11481;53.694;9.910;2023-02-01T09:14:33;5.90;99.90
22629;DHT22;11481;53.694;9.910;2023-02-01T09:16:59;5.90;99.90
22629;DHT22;11481;53.694;9.910;2023-02-01T09:19:26;5.90;99.90
22629;DHT22;11481;53.694;9.910;2023-02-01T09:21:53;7.10;99.90
22629;DHT22;11481;53.694;9.910;2023-02-01T09:24:20;6.10;99.90
22629;DHT22;11481;53.694;9.910;2023-02-01T09:26:47;6.10;99.90
22629;DHT22;11481;53.694;9.910;2023-02-01T09:29:13;6.20;99.90
22629;DHT22;11481;53.694;9.910;2023-02-01T09:31:40;6.20;99.90
22629;DHT22;11481;53.694;9.910;2023-02-01T09:34:23;6.30;99.90
22629;DHT22;11481;53.694;9.910;2023-02-01T09:36:49;6.40;99.90
22629;DHT22;11481;53.694;9.910;2023-02-01T09:39:16;6.40;99.90
22629;DHT22;11481;53.694;9.910;2023-02-01T09:46:56;6.50;99.90
22629;DHT22;11481;53.694;9.910;2023-02-01T09:49:29;6.50;99.90
22629;DHT22;11481;53.694;9.910;2023-02-01T09:51:56;6.50;99.90
22629;DHT22;11481;53.694;9.910;2023-02-01T09:54:26;6.40;99.90
22629;DHT22;11481;53.694;9.910;2023-02-01T09:57:07;6.50;99.90
22629;DHT22;11481;53.694;9.910;2023-02-01T09:59:40;6.50;99.90
22629;DHT22;11481;53.694;9.910;2023-02-01T10:02:14;6.50;99.90
22629;DHT22;11481;53.694;9.910;2023-02-01T10:04:43;6.60;99.90
22629;DHT22;11481;53.694;9.910;2023-02-01T10:10:14;6.60;99.90
22629;DHT22;11481;53.694;9.910;2023-02-01T10:15:40;6.00;99.90
22629;DHT22;11481;53.694;9.910;2023-02-01T10:20:57;6.00;99.90
22629;DHT22;11481;53.694;9.910;2023-02-01T10:26:21;5.90;99.90
22629;DHT22;11481;53.694;9.910;2023-02-01T10:28:53;5.90;99.90
22629;DHT22;11481;53.694;9.910;2023-02-01T10:31:24;5.90;99.90
22629;DHT22;11481;53.694;9.910;2023-02-01T10:34:00;5.90;99.90
22629;DHT22;11481;53.694;9.910;2023-02-01T10:36:35;6.00;99.90
22629;DHT22;11481;53.694;9.910;2023-02-01T10:39:04;6.00;99.90
22629;DHT22;11481;53.694;9.910;2023-02-01T10:41:35;6.10;99.90
22629;DHT22;11481;53.694;9.910;2023-02-01T10:44:14;6.10;99.90
22629;DHT22;11481;53.694;9.910;2023-02-01T10:46:42;6.10;99.90
22629;DHT22;11481;53.694;9.910;2023-02-01T10:49:18;6.20;99.90
22629;DHT22;11481;53.694;9.910;2023-02-01T10:51:52;6.10;99.90
22629;DHT22;11481;53.694;9.910;2023-02-01T10:54:31;6.10;99.90
22629;DHT22;11481;53.694;9.910;2023-02-01T10:56:58;6.10;99.90
22629;DHT22;11481;53.694;9.910;2023-02-01T10:59:29;6.20;99.90
22629;DHT22;11481;53.694;9.910;2023-02-01T11:02:02;6.30;99.90
22629;DHT22;11481;53.694;9.910;2023-02-01T11:04:34;6.20;99.90
22629;DHT22;11481;53.694;9.910;2023-02-01T11:07:12;6.20;99.90
22629;DHT22;11481;53.694;9.910;2023-02-01T11:09:40;6.20;99.90
22629;DHT22;11481;53.694;9.910;2023-02-01T11:15:23;6.10;99.90
22629;DHT22;11481;53.694;9.910;2023-02-01T11:17:51;6.20;99.90
22629;DHT22;11481;53.694;9.910;2023-02-01T11:20:21;6.20;99.90
22629;DHT22;11481;53.694;9.910;2023-02-01T11:22:55;6.30;99.90
22629;DHT22;11481;53.694;9.910;2023-02-01T11:25:23;6.30;99.90
22629;DHT22;11481;53.694;9.910;2023-02-01T11:27:54;6.30;99.90
22629;DHT22;11481;53.694;9.910;2023-02-01T11:30:38;6.30;99.90
22629;DHT22;11481;53.694;9.910;2023-02-01T11:33:09;6.30;99.90
22629;DHT22;11481;53.694;9.910;2023-02-01T11:35:39;6.40;99.90
22629;DHT22;11481;53.694;9.910;2023-02-01T11:38:31;6.40;99.90
22629;DHT22;11481;53.694;9.910;2023-02-01T11:41:26;6.50;99.90
22629;DHT22;11481;53.694;9.910;2023-02-01T11:43:55;6.50;99.90
22629;DHT22;11481;53.694;9.910;2023-02-01T11:46:27;6.60;99.90
22629;DHT22;11481;53.694;9.910;2023-02-01T11:48:56;6.60;99.90
22629;DHT22;11481;53.694;9.910;2023-02-01T12:00:28;6.60;99.90
22629;DHT22;11481;53.694;9.910;2023-02-01T12:11:06;6.30;99.90
22629;DHT22;11481;53.694;9.910;2023-02-01T12:14:04;6.20;99.90
22629;DHT22;11481;53.694;9.910;2023-02-01T12:17:07;6.10;99.90
22629;DHT22;11481;53.694;9.910;2023-02-01T12:20:02;5.90;99.90
22629;DHT22;11481;53.694;9.910;2023-02-01T12:22:38;5.80;99.90
22629;DHT22;11481;53.694;9.910;2023-02-01T12:25:20;5.80;99.90
22629;DHT22;11481;53.694;9.910;2023-02-01T12:36:48;5.20;99.90
22629;DHT22;11481;53.694;9.910;2023-02-01T12:39:36;5.10;99.90
22629;DHT22;11481;53.694;9.910;2023-02-01T12:42:21;5.00;99.90
22629;DHT22;11481;53.694;9.910;2023-02-01T12:44:54;4.90;99.90
22629;DHT22;11481;53.694;9.910;2023-02-01T12:50:14;4.90;99.90
22629;DHT22;11481;53.694;9.910;2023-02-01T12:52:48;4.80;99.90
22629;DHT22;11481;53.694;9.910;2023-02-01T12:57:55;4.80;99.90
22629;DHT22;11481;53.694;9.910;2023-02-01T13:01:06;4.80;99.90
22629;DHT22;11481;53.694;9.910;2023-02-01T13:07:18;4.80;99.90
22629;DHT22;11481;53.694;9.910;2023-02-01T13:09:45;4.80;99.90
22629;DHT22;11481;53.694;9.910;2023-02-01T13:12:17;4.80;99.90
22629;DHT22;11481;53.694;9.910;2023-02-01T13:15:12;4.90;99.90
22629;DHT22;11481;53.694;9.910;2023-02-01T13:17:41;5.00;99.90
22629;DHT22;11481;53.694;9.910;2023-02-01T13:20:25;5.10;99.90
22629;DHT22;11481;53.694;9.910;2023-02-01T13:22:59;5.30;99.90
22629;DHT22;11481;53.694;9.910;2023-02-01T13:25:49;5.40;99.90
22629;DHT22;11481;53.694;9.910;2023-02-01T13:28:27;5.60;99.90
22629;DHT22;11481;53.694;9.910;2023-02-01T13:39:56;5.60;99.90
22629;DHT22;11481;53.694;9.910;2023-02-01T13:42:33;5.50;99.90
22629;DHT22;11481;53.694;9.910;2023-02-01T13:45:04;5.50;99.90
22629;DHT22;11481;53.694;9.910;2023-02-01T13:47:35;5.10;99.90
22629;DHT22;11481;53.694;9.910;2023-02-01T13:50:27;4.60;99.90
22629;DHT22;11481;53.694;9.910;2023-02-01T13:53:03;4.40;99.90
22629;DHT22;11481;53.694;9.910;2023-02-01T13:55:36;4.50;99.90
22629;DHT22;11481;53.694;9.910;2023-02-01T13:58:28;4.40;99.90
22629;DHT22;11481;53.694;9.910;2023-02-01T14:01:32;4.40;99.90
22629;DHT22;11481;53.694;9.910;2023-02-01T14:04:06;4.40;99.90
22629;DHT22;11481;53.694;9.910;2023-02-01T14:06:54;4.40;99.90
22629;DHT22;11481;53.694;9.910;2023-02-01T14:09:34;4.30;99.90
22629;DHT22;11481;53.694;9.910;2023-02-01T14:15:27;4.30;99.90
22629;DHT22;11481;53.694;9.910;2023-02-01T14:17:55;3.90;99.90
22629;DHT22;11481;53.694;9.910;2023-02-01T14:20:44;3.70;99.90
22629;DHT22;11481;53.694;9.910;2023-02-01T14:23:15;3.80;99.90
22629;DHT22;11481;53.694;9.910;2023-02-01T14:25:43;3.80;99.90
22629;DHT22;11481;53.694;9.910;2023-02-01T14:28:25;3.90;99.90
22629;DHT22;11481;53.694;9.910;2023-02-01T14:30:54;4.00;99.90
22629;DHT22;11481;53.694;9.910;2023-02-01T14:33:25;4.00;99.90
22629;DHT22;11481;53.694;9.910;2023-02-01T14:36:22;4.20;99.90
22629;DHT22;11481;53.694;9.910;2023-02-01T14:38:50;4.30;99.90
22629;DHT22;11481;53.694;9.910;2023-02-01T14:41:28;4.20;99.90
22629;DHT22;11481;53.694;9.910;2023-02-01T14:47:07;4.40;99.90
22629;DHT22;11481;53.694;9.910;2023-02-01T14:49:47;4.40;99.90
22629;DHT22;11481;53.694;9.910;2023-02-01T14:52:17;4.40;99.90
22629;DHT22;11481;53.694;9.910;2023-02-01T14:54:56;4.50;99.90
22629;DHT22;11481;53.694;9.910;2023-02-01T14:57:26;4.50;99.90
22629;DHT22;11481;53.694;9.910;2023-02-01T15:00:21;4.50;99.90
22629;DHT22;11481;53.694;9.910;2023-02-01T15:02:49;4.50;99.90
22629;DHT22;11481;53.694;9.910;2023-02-01T15:05:29;4.60;99.90
22629;DHT22;11481;53.694;9.910;2023-02-01T15:08:06;4.60;99.90
22629;DHT22;11481;53.694;9.910;2023-02-01T15:10:41;4.60;99.90
22629;DHT22;11481;53.694;9.910;2023-02-01T15:13:18;4.50;99.90
22629;DHT22;11481;53.694;9.910;2023-02-01T15:16:21;4.60;99.90
22629;DHT22;11481;53.694;9.910;2023-02-01T15:18:46;4.60;99.90
22629;DHT22;11481;53.694;9.910;2023-02-01T15:21:18;4.60;99.90
22629;DHT22;11481;53.694;9.910;2023-02-01T15:24:29;4.70;99.90
22629;DHT22;11481;53.694;9.910;2023-02-01T15:27:03;4.60;99.90
22629;DHT22;11481;53.694;9.910;2023-02-01T15:29:31;4.70;99.90
22629;DHT22;11481;53.694;9.910;2023-02-01T15:32:01;4.80;99.90
22629;DHT22;11481;53.694;9.910;2023-02-01T15:34:48;4.70;99.90
22629;DHT22;11481;53.694;9.910;2023-02-01T15:37:16;4.70;99.90
22629;DHT22;11481;53.694;9.910;2023-02-01T15:42:51;4.70;99.90
22629;DHT22;11481;53.694;9.910;2023-02-01T15:45:21;4.80;99.90
22629;DHT22;11481;53.694;9.910;2023-02-01T15:47:50;4.80;99.90
22629;DHT22;11481;53.694;9.910;2023-02-01T15:50:19;4.80;99.90
22629;DHT22;11481;53.694;9.910;2023-02-01T15:52:51;4.90;99.90
22629;DHT22;11481;53.694;9.910;2023-02-01T15:55:22;4.90;99.90
22629;DHT22;11481;53.694;9.910;2023-02-01T15:57:51;5.00;99.90
22629;DHT22;11481;53.694;9.910;2023-02-01T16:02:58;5.00;99.90
22629;DHT22;11481;53.694;9.910;2023-02-01T16:05:36;5.10;99.90
22629;DHT22;11481;53.694;9.910;2023-02-01T16:10:43;5.20;99.90
22629;DHT22;11481;53.694;9.910;2023-02-01T16:13:12;5.20;99.90
22629;DHT22;11481;53.694;9.910;2023-02-01T16:15:39;5.30;99.90
22629;DHT22;11481;53.694;9.910;2023-02-01T16:18:07;5.30;99.90
22629;DHT22;11481;53.694;9.910;2023-02-01T16:20:35;5.40;99.90
22629;DHT22;11481;53.694;9.910;2023-02-01T16:23:03;5.40;99.90
22629;DHT22;11481;53.694;9.910;2023-02-01T16:25:30;5.50;99.90
22629;DHT22;11481;53.694;9.910;2023-02-01T16:27:57;5.50;99.90
22629;DHT22;11481;53.694;9.910;2023-02-01T16:30:24;5.50;99.90
22629;DHT22;11481;53.694;9.910;2023-02-01T16:33:01;5.60;99.90
22629;DHT22;11481;53.694;9.910;2023-02-01T16:35:36;5.70;99.90
22629;DHT22;11481;53.694;9.910;2023-02-01T16:38:14;5.70;99.90
22629;DHT22;11481;53.694;9.910;2023-02-01T16:40:42;5.70;99.90
22629;DHT22;11481;53.694;9.910;2023-02-01T16:43:18;5.70;99.90
22629;DHT22;11481;53.694;9.910;2023-02-01T16:45:47;5.80;99.90
22629;DHT22;11481;53.694;9.910;2023-02-01T16:48:24;5.80;99.90
22629;DHT22;11481;53.694;9.910;2023-02-01T16:50:54;5.80;99.90
22629;DHT22;11481;53.694;9.910;2023-02-01T16:53:23;5.80;99.90
22629;DHT22;11481;53.694;9.910;2023-02-01T16:55:50;5.80;99.90
22629;DHT22;11481;53.694;9.910;2023-02-01T16:58:20;5.80;99.90
22629;DHT22;11481;53.694;9.910;2023-02-01T17:00:48;5.80;99.90
22629;DHT22;11481;53.694;9.910;2023-02-01T17:03:15;5.80;99.90
22629;DHT22;11481;53.694;9.910;2023-02-01T17:05:48;5.80;99.90
22629;DHT22;11481;53.694;9.910;2023-02-01T17:08:31;5.80;99.90
22629;DHT22;11481;53.694;9.910;2023-02-01T17:11:01;5.80;99.90
22629;DHT22;11481;53.694;9.910;2023-02-01T17:13:28;5.80;99.90
22629;DHT22;11481;53.694;9.910;2023-02-01T17:15:58;5.80;99.90
22629;DHT22;11481;53.694;9.910;2023-02-01T17:18:28;5.90;99.90
22629;DHT22;11481;53.694;9.910;2023-02-01T17:21:00;5.80;99.90
22629;DHT22;11481;53.694;9.910;2023-02-01T17:23:28;5.80;99.90
22629;DHT22;11481;53.694;9.910;2023-02-01T17:25:56;5.80;99.90
22629;DHT22;11481;53.694;9.910;2023-02-01T17:28:23;5.80;99.90
22629;DHT22;11481;53.694;9.910;2023-02-01T17:30:50;5.90;99.90
22629;DHT22;11481;53.694;9.910;2023-02-01T17:33:31;5.90;99.90
22629;DHT22;11481;53.694;9.910;2023-02-01T17:36:03;5.80;99.90
22629;DHT22;11481;53.694;9.910;2023-02-01T17:38:32;5.80;99.90
22629;DHT22;11481;53.694;9.910;2023-02-01T17:41:00;5.80;99.90
22629;DHT22;11481;53.694;9.910;2023-02-01T17:43:27;5.90;99.90
22629;DHT22;11481;53.694;9.910;2023-02-01T17:46:06;5.90;99.90
22629;DHT22;11481;53.694;9.910;2023-02-01T17:48:36;5.90;99.90
22629;DHT22;11481;53.694;9.910;2023-02-01T17:51:03;5.90;99.90
22629;DHT22;11481;53.694;9.910;2023-02-01T17:53:29;5.90;99.90
22629;DHT22;11481;53.694;9.910;2023-02-01T17:55:56;5.90;99.90
22629;DHT22;11481;53.694;9.910;2023-02-01T17:58:24;5.90;99.90
22629;DHT22;11481;53.694;9.910;2023-02-01T18:00:52;5.90;99.90
22629;DHT22;11481;53.694;9.910;2023-02-01T18:03:27;5.90;99.90